Aeroporto :
LOGIN :

Iscrizione | Disclaimer

   EN    FR    IT 

 










Sommario :    VFR   VFR Marginale   IFR   IFR Intensivo   IFR Molto Intensivo
Visibilità : 
Base nubi : 
>= 8 km
>= 3000ft
5 / 8 km
1000 / 3000 ft
1500m / 5 km
500 / 1000 ft
800 / 1500m
200 / 500 ft
< 800m
< 200 ft
Simboli :   Temporali  Nebbia  Neve Forte  Precipitazioni Forti  Vento > 20 kt
SIGMETs :   Varie  Temporali  Ghiacco  Turbolenza  Onda orograficha  Ceneri Vulcaniche






- Altitudine del aeroporto : 247 ft
- Codice IATA : BLL


EKBI - Billund

ULTIMO METAR :
  • 161850Z AUTO 21013KT 9999 RA OVC011/// 06/05 Q0989

METARs OBSOLETI :
  • 161820Z AUTO 22015KT 9999 RA OVC013/// 06/05 Q0989
  • 161750Z AUTO 21012KT 9999 RA OVC019/// 06/05 Q0989
  • 161720Z AUTO 22013G26KT 9999 RA OVC016/// 06/05 Q0989
  • 161650Z AUTO 22016G30KT 190V250 9999 RA OVC013/// 07/06 Q0989
  • 161620Z AUTO 22009KT 190V260 9999 RA OVC028/// 07/06 Q0989

TAF TAF EKBI
Valido dal 16 a 18 ore il 17 a 18 ore UTC


161700Z 1618/1718 23015KT 9999 BKN025
TEMPO 1618/1621 21015G30KT 4000 RADZ BKN008
TEMPO 1621/1623 4000 SHRA BKN012CB
TEMPO 1623/1703 SCT020CB
TEMPO 1703/1714 24025G40KT SCT020CB
TEMPO 1714/1718 24018G32KT SCT020CB



MetMap, La meteo Aeronautica in un colpo d'occhio ! - Copyright ORBIFLY Dicembre 2007 - Disclaimer

ORBIFLY MET'MAP TEAM :

Programmazione e sviluppo : Alexandra Zaïnal
Concezione : Baudouin d'Aumeries
Aiuto per la programmazione : Marc-Olivier Méhu
Supporto tecnico e logistico : Manuel Goepfert
Aiuto per la traduzione : Arnaldo La Scala

Contatto : metmap@orbifly.com




FONTI E CREDITI :

   NOAA